This is the latest recevied weather packets stored in our database for station/object EA1JAO-11. If no packets are shown the sender has not sent any weather packets the latest 10 day(s).
| Time | Temp. | Humidity | Pressure | Rain* | Wind** | Luminosity | Snow |
|---|---|---|---|---|---|---|---|
| 1778098274 | 13.89° C | 85% | 1013.1 hPa | - | - | - | - |
| 1778096476 | 13.89° C | 84% | 1013.1 hPa | - | - | - | - |
| 1778095941 | 13.89° C | 85% | 1013.1 hPa | - | - | - | - |
| 1778094673 | 14.44° C | 82% | 1012.9 hPa | - | - | - | - |
| 1778092876 | 14.44° C | 78% | 1013.1 hPa | - | - | - | - |
| 1778091074 | 15.56° C | 74% | 1013.1 hPa | - | - | - | - |
| 1778089274 | 15.56° C | 73% | 1013.2 hPa | - | - | - | - |
| 1778085674 | 17.22° C | 69% | 1013.3 hPa | - | - | - | - |
| 1778083875 | 16.67° C | 68% | 1013.4 hPa | - | - | - | - |
| 1778082075 | 17.78° C | 65% | 1013.4 hPa | - | - | - | - |
| 1778080273 | 18.33° C | 63% | 1013.7 hPa | - | - | - | - |
| 1778076669 | 18.33° C | 75% | 1014.1 hPa | - | - | - | - |
| 1778074875 | 17.78° C | 84% | 1014.5 hPa | - | - | - | - |
| 1778073073 | 16.11° C | 86% | 1014.5 hPa | - | - | - | - |
| 1778071273 | 16.11° C | 78% | 1014.6 hPa | - | - | - | - |
| 1778069473 | 17.78° C | 64% | 1014.8 hPa | - | - | - | - |
| 1778067685 | 20.56° C | 56% | 1014.7 hPa | - | - | - | - |
| 1778065869 | 18.33° C | 74% | 1014.9 hPa | - | - | - | - |
| 1778064069 | 16.11° C | 72% | 1014.8 hPa | - | - | - | - |
| 1778062269 | 20° C | 64% | 1014.6 hPa | - | - | - | - |
| 1778060469 | 16.67° C | 84% | 1014.7 hPa | - | - | - | - |
| 1778058669 | 16.11° C | 86% | 1014.6 hPa | - | - | - | - |
| 1778056869 | 16.11° C | 86% | 1014.6 hPa | - | - | - | - |
| 1778055069 | 15.56° C | 91% | 1014.6 hPa | - | - | - | - |
| 1778053275 | 14.44° C | 89% | 1014.7 hPa | - | - | - | - |
* Rain since midnight (hover to see other rain measurements)
** Current wind speed in m/s (hover to see current wind gust speed)